sensor_id;sensor_type;location;lat;lon;timestamp;P1;durP1;ratioP1;P2;durP2;ratioP2
10890;SDS011;5498;50.928;11.598;2022-08-26T00:02:57;1114.70;;;999.90;;
10890;SDS011;5498;50.928;11.598;2022-08-26T00:06:01;1115.13;;;999.90;;
10890;SDS011;5498;50.928;11.598;2022-08-26T00:09:03;1096.57;;;996.43;;
10890;SDS011;5498;50.928;11.598;2022-08-26T00:12:06;1105.43;;;999.90;;
10890;SDS011;5498;50.928;11.598;2022-08-26T00:15:10;1116.10;;;999.90;;
10890;SDS011;5498;50.928;11.598;2022-08-26T00:18:14;1108.70;;;999.90;;
10890;SDS011;5498;50.928;11.598;2022-08-26T00:21:17;1130.77;;;999.90;;
10890;SDS011;5498;50.928;11.598;2022-08-26T00:24:20;1093.47;;;993.87;;
10890;SDS011;5498;50.928;11.598;2022-08-26T00:27:22;1101.90;;;997.47;;
10890;SDS011;5498;50.928;11.598;2022-08-26T00:30:25;1046.03;;;951.00;;
10890;SDS011;5498;50.928;11.598;2022-08-26T00:33:29;1108.67;;;999.90;;
10890;SDS011;5498;50.928;11.598;2022-08-26T00:36:33;1082.33;;;979.43;;
10890;SDS011;5498;50.928;11.598;2022-08-26T00:39:35;1097.90;;;995.37;;
10890;SDS011;5498;50.928;11.598;2022-08-26T00:42:36;1096.70;;;993.70;;
10890;SDS011;5498;50.928;11.598;2022-08-26T00:45:39;1083.43;;;983.37;;
10890;SDS011;5498;50.928;11.598;2022-08-26T00:48:45;1092.77;;;993.30;;
10890;SDS011;5498;50.928;11.598;2022-08-26T00:51:52;1101.03;;;998.30;;
10890;SDS011;5498;50.928;11.598;2022-08-26T00:54:57;1079.33;;;979.20;;
10890;SDS011;5498;50.928;11.598;2022-08-26T00:58:04;1079.57;;;979.43;;
10890;SDS011;5498;50.928;11.598;2022-08-26T01:01:08;1077.03;;;977.37;;
10890;SDS011;5498;50.928;11.598;2022-08-26T01:04:10;1090.07;;;990.37;;
10890;SDS011;5498;50.928;11.598;2022-08-26T01:07:16;1094.57;;;994.23;;
10890;SDS011;5498;50.928;11.598;2022-08-26T01:10:19;1087.23;;;987.83;;
10890;SDS011;5498;50.928;11.598;2022-08-26T01:13:26;1089.70;;;990.70;;
10890;SDS011;5498;50.928;11.598;2022-08-26T01:16:30;1086.20;;;988.33;;
10890;SDS011;5498;50.928;11.598;2022-08-26T01:19:34;1086.23;;;987.40;;
10890;SDS011;5498;50.928;11.598;2022-08-26T01:22:44;1084.50;;;985.33;;
10890;SDS011;5498;50.928;11.598;2022-08-26T01:25:53;1091.77;;;991.00;;
10890;SDS011;5498;50.928;11.598;2022-08-26T01:29:02;1083.60;;;982.93;;
10890;SDS011;5498;50.928;11.598;2022-08-26T01:32:07;1071.73;;;973.47;;
10890;SDS011;5498;50.928;11.598;2022-08-26T01:35:11;1080.97;;;983.67;;
10890;SDS011;5498;50.928;11.598;2022-08-26T01:38:15;1080.17;;;980.17;;
10890;SDS011;5498;50.928;11.598;2022-08-26T01:41:18;1081.23;;;983.00;;
10890;SDS011;5498;50.928;11.598;2022-08-26T01:44:21;1083.03;;;984.20;;
10890;SDS011;5498;50.928;11.598;2022-08-26T01:47:26;1075.07;;;976.30;;
10890;SDS011;5498;50.928;11.598;2022-08-26T01:50:32;1075.37;;;974.87;;
10890;SDS011;5498;50.928;11.598;2022-08-26T01:53:37;1071.87;;;971.30;;
10890;SDS011;5498;50.928;11.598;2022-08-26T01:56:40;1080.93;;;981.50;;
10890;SDS011;5498;50.928;11.598;2022-08-26T01:59:42;1073.20;;;975.40;;
10890;SDS011;5498;50.928;11.598;2022-08-26T02:02:45;1080.50;;;981.23;;
10890;SDS011;5498;50.928;11.598;2022-08-26T02:05:51;1081.10;;;981.37;;
10890;SDS011;5498;50.928;11.598;2022-08-26T02:08:58;1056.30;;;956.60;;
10890;SDS011;5498;50.928;11.598;2022-08-26T02:12:02;1064.93;;;963.77;;
10890;SDS011;5498;50.928;11.598;2022-08-26T02:15:06;1042.60;;;942.13;;
10890;SDS011;5498;50.928;11.598;2022-08-26T02:18:11;1051.80;;;952.10;;
10890;SDS011;5498;50.928;11.598;2022-08-26T02:21:13;1056.53;;;957.30;;
10890;SDS011;5498;50.928;11.598;2022-08-26T02:24:18;1064.47;;;960.80;;
10890;SDS011;5498;50.928;11.598;2022-08-26T02:27:24;1041.77;;;940.23;;
10890;SDS011;5498;50.928;11.598;2022-08-26T02:30:31;1029.30;;;928.33;;
10890;SDS011;5498;50.928;11.598;2022-08-26T02:33:33;1022.67;;;917.07;;
10890;SDS011;5498;50.928;11.598;2022-08-26T02:36:36;1014.17;;;911.20;;
10890;SDS011;5498;50.928;11.598;2022-08-26T02:39:40;1027.00;;;924.33;;
10890;SDS011;5498;50.928;11.598;2022-08-26T02:42:42;1059.93;;;956.77;;
10890;SDS011;5498;50.928;11.598;2022-08-26T02:45:45;1029.30;;;925.10;;
10890;SDS011;5498;50.928;11.598;2022-08-26T02:48:47;1029.37;;;929.47;;
10890;SDS011;5498;50.928;11.598;2022-08-26T02:51:49;1033.93;;;934.80;;
10890;SDS011;5498;50.928;11.598;2022-08-26T02:54:53;1038.60;;;939.70;;
10890;SDS011;5498;50.928;11.598;2022-08-26T02:57:55;1031.73;;;931.43;;
10890;SDS011;5498;50.928;11.598;2022-08-26T03:00:57;1048.33;;;949.57;;
10890;SDS011;5498;50.928;11.598;2022-08-26T03:03:59;1040.10;;;939.10;;
10890;SDS011;5498;50.928;11.598;2022-08-26T03:07:04;1029.57;;;932.77;;
10890;SDS011;5498;50.928;11.598;2022-08-26T03:10:08;1042.07;;;944.70;;
10890;SDS011;5498;50.928;11.598;2022-08-26T03:13:12;1048.47;;;952.93;;
10890;SDS011;5498;50.928;11.598;2022-08-26T03:16:14;1034.23;;;941.23;;
10890;SDS011;5498;50.928;11.598;2022-08-26T03:19:17;1048.20;;;954.43;;
10890;SDS011;5498;50.928;11.598;2022-08-26T03:22:20;1049.03;;;956.27;;
10890;SDS011;5498;50.928;11.598;2022-08-26T03:25:23;1032.57;;;938.73;;
10890;SDS011;5498;50.928;11.598;2022-08-26T03:28:26;1043.73;;;953.23;;
10890;SDS011;5498;50.928;11.598;2022-08-26T03:31:28;1048.77;;;957.73;;
10890;SDS011;5498;50.928;11.598;2022-08-26T03:34:29;1034.27;;;943.20;;
10890;SDS011;5498;50.928;11.598;2022-08-26T03:37:31;1026.67;;;936.53;;
10890;SDS011;5498;50.928;11.598;2022-08-26T03:40:34;1040.50;;;949.37;;
10890;SDS011;5498;50.928;11.598;2022-08-26T03:43:38;1044.17;;;953.67;;
10890;SDS011;5498;50.928;11.598;2022-08-26T03:46:40;1029.80;;;939.70;;
10890;SDS011;5498;50.928;11.598;2022-08-26T03:49:42;1032.93;;;941.90;;
10890;SDS011;5498;50.928;11.598;2022-08-26T03:52:43;1044.10;;;952.13;;
10890;SDS011;5498;50.928;11.598;2022-08-26T03:55:47;1054.13;;;960.07;;
10890;SDS011;5498;50.928;11.598;2022-08-26T03:58:49;1045.47;;;953.13;;
10890;SDS011;5498;50.928;11.598;2022-08-26T04:01:51;1036.57;;;941.70;;
10890;SDS011;5498;50.928;11.598;2022-08-26T04:04:53;1033.50;;;939.53;;
10890;SDS011;5498;50.928;11.598;2022-08-26T04:07:55;1033.73;;;937.93;;
10890;SDS011;5498;50.928;11.598;2022-08-26T04:10:58;1019.87;;;929.13;;
10890;SDS011;5498;50.928;11.598;2022-08-26T04:14:04;1035.40;;;941.10;;
10890;SDS011;5498;50.928;11.598;2022-08-26T04:17:08;1018.13;;;926.13;;
10890;SDS011;5498;50.928;11.598;2022-08-26T04:20:12;1043.27;;;947.73;;
10890;SDS011;5498;50.928;11.598;2022-08-26T04:23:17;1017.47;;;922.60;;
10890;SDS011;5498;50.928;11.598;2022-08-26T04:26:21;1029.60;;;935.37;;
10890;SDS011;5498;50.928;11.598;2022-08-26T04:29:24;1022.00;;;928.80;;
10890;SDS011;5498;50.928;11.598;2022-08-26T04:32:26;1030.20;;;935.67;;
10890;SDS011;5498;50.928;11.598;2022-08-26T04:35:28;1016.80;;;922.13;;
10890;SDS011;5498;50.928;11.598;2022-08-26T04:38:31;1012.27;;;919.97;;
10890;SDS011;5498;50.928;11.598;2022-08-26T04:41:35;1041.70;;;943.97;;
10890;SDS011;5498;50.928;11.598;2022-08-26T04:44:37;1039.93;;;939.97;;
10890;SDS011;5498;50.928;11.598;2022-08-26T04:47:40;1013.20;;;915.27;;
10890;SDS011;5498;50.928;11.598;2022-08-26T04:50:42;1005.33;;;909.33;;
10890;SDS011;5498;50.928;11.598;2022-08-26T04:53:44;1009.87;;;913.67;;
10890;SDS011;5498;50.928;11.598;2022-08-26T04:56:48;1012.70;;;916.30;;
10890;SDS011;5498;50.928;11.598;2022-08-26T04:59:50;1029.53;;;931.07;;
10890;SDS011;5498;50.928;11.598;2022-08-26T05:02:52;1024.63;;;925.80;;
10890;SDS011;5498;50.928;11.598;2022-08-26T05:05:55;1014.93;;;918.63;;
10890;SDS011;5498;50.928;11.598;2022-08-26T05:08:57;1026.77;;;932.40;;
10890;SDS011;5498;50.928;11.598;2022-08-26T05:12:01;1036.87;;;940.57;;
10890;SDS011;5498;50.928;11.598;2022-08-26T05:15:04;1036.90;;;940.57;;
10890;SDS011;5498;50.928;11.598;2022-08-26T05:18:09;1032.77;;;937.33;;
10890;SDS011;5498;50.928;11.598;2022-08-26T05:21:16;1038.00;;;941.90;;
10890;SDS011;5498;50.928;11.598;2022-08-26T05:24:21;1020.60;;;926.20;;
10890;SDS011;5498;50.928;11.598;2022-08-26T05:27:24;1028.90;;;932.97;;
10890;SDS011;5498;50.928;11.598;2022-08-26T05:30:28;1027.23;;;931.00;;
10890;SDS011;5498;50.928;11.598;2022-08-26T05:33:30;1017.27;;;921.70;;
10890;SDS011;5498;50.928;11.598;2022-08-26T05:36:34;1054.73;;;954.43;;
10890;SDS011;5498;50.928;11.598;2022-08-26T05:39:36;1024.33;;;930.60;;
10890;SDS011;5498;50.928;11.598;2022-08-26T05:42:40;1057.03;;;962.30;;
10890;SDS011;5498;50.928;11.598;2022-08-26T05:45:42;1076.17;;;979.33;;
10890;SDS011;5498;50.928;11.598;2022-08-26T05:48:46;1061.13;;;961.70;;
10890;SDS011;5498;50.928;11.598;2022-08-26T05:51:49;1066.20;;;966.70;;
10890;SDS011;5498;50.928;11.598;2022-08-26T05:54:51;1077.90;;;978.27;;
10890;SDS011;5498;50.928;11.598;2022-08-26T05:57:55;1085.30;;;985.47;;
10890;SDS011;5498;50.928;11.598;2022-08-26T06:00:58;1053.63;;;957.60;;
10890;SDS011;5498;50.928;11.598;2022-08-26T06:04:04;1083.53;;;984.67;;
10890;SDS011;5498;50.928;11.598;2022-08-26T06:07:06;1084.53;;;987.87;;
10890;SDS011;5498;50.928;11.598;2022-08-26T06:10:10;1080.60;;;983.93;;
10890;SDS011;5498;50.928;11.598;2022-08-26T06:13:15;1080.17;;;984.30;;
10890;SDS011;5498;50.928;11.598;2022-08-26T06:16:20;1090.10;;;992.70;;
10890;SDS011;5498;50.928;11.598;2022-08-26T06:19:23;1090.83;;;993.77;;
10890;SDS011;5498;50.928;11.598;2022-08-26T06:22:25;1097.40;;;997.40;;
10890;SDS011;5498;50.928;11.598;2022-08-26T06:25:45;1076.90;;;985.60;;
10890;SDS011;5498;50.928;11.598;2022-08-26T06:28:49;1117.37;;;999.90;;
10890;SDS011;5498;50.928;11.598;2022-08-26T06:31:51;1128.83;;;999.90;;
10890;SDS011;5498;50.928;11.598;2022-08-26T06:34:54;1109.67;;;999.90;;
10890;SDS011;5498;50.928;11.598;2022-08-26T06:37:56;1116.67;;;999.90;;
10890;SDS011;5498;50.928;11.598;2022-08-26T06:40:58;1125.70;;;999.90;;
10890;SDS011;5498;50.928;11.598;2022-08-26T06:44:04;1136.87;;;999.90;;
10890;SDS011;5498;50.928;11.598;2022-08-26T06:47:07;1154.90;;;999.90;;
10890;SDS011;5498;50.928;11.598;2022-08-26T06:50:09;1125.17;;;999.90;;
10890;SDS011;5498;50.928;11.598;2022-08-26T06:53:12;1139.60;;;999.90;;
10890;SDS011;5498;50.928;11.598;2022-08-26T06:56:17;1144.03;;;999.90;;
10890;SDS011;5498;50.928;11.598;2022-08-26T06:59:24;1155.10;;;999.90;;
10890;SDS011;5498;50.928;11.598;2022-08-26T07:02:26;1138.60;;;999.90;;
10890;SDS011;5498;50.928;11.598;2022-08-26T07:05:28;1134.53;;;999.90;;
10890;SDS011;5498;50.928;11.598;2022-08-26T07:08:30;1136.27;;;999.90;;
10890;SDS011;5498;50.928;11.598;2022-08-26T07:11:33;1151.70;;;999.90;;
10890;SDS011;5498;50.928;11.598;2022-08-26T07:14:38;1133.93;;;999.90;;
10890;SDS011;5498;50.928;11.598;2022-08-26T07:17:39;1139.10;;;999.90;;
10890;SDS011;5498;50.928;11.598;2022-08-26T07:20:41;1127.60;;;999.90;;
10890;SDS011;5498;50.928;11.598;2022-08-26T07:23:44;1137.97;;;999.90;;
10890;SDS011;5498;50.928;11.598;2022-08-26T07:26:48;1154.87;;;999.90;;
10890;SDS011;5498;50.928;11.598;2022-08-26T07:29:54;1170.83;;;999.90;;
10890;SDS011;5498;50.928;11.598;2022-08-26T07:32:56;1166.70;;;999.90;;
10890;SDS011;5498;50.928;11.598;2022-08-26T07:35:59;1219.83;;;999.90;;
10890;SDS011;5498;50.928;11.598;2022-08-26T07:39:01;1264.90;;;999.90;;
10890;SDS011;5498;50.928;11.598;2022-08-26T07:42:05;1265.03;;;999.90;;
10890;SDS011;5498;50.928;11.598;2022-08-26T07:45:09;1261.43;;;999.90;;
10890;SDS011;5498;50.928;11.598;2022-08-26T07:48:11;1276.33;;;999.90;;
10890;SDS011;5498;50.928;11.598;2022-08-26T07:51:13;1266.17;;;999.90;;
10890;SDS011;5498;50.928;11.598;2022-08-26T07:54:16;1278.77;;;999.90;;
10890;SDS011;5498;50.928;11.598;2022-08-26T07:57:18;1273.07;;;999.90;;
10890;SDS011;5498;50.928;11.598;2022-08-26T08:00:22;1274.67;;;999.90;;
10890;SDS011;5498;50.928;11.598;2022-08-26T08:03:24;1272.03;;;999.90;;
10890;SDS011;5498;50.928;11.598;2022-08-26T08:06:27;1317.67;;;999.90;;
10890;SDS011;5498;50.928;11.598;2022-08-26T08:09:29;1264.27;;;999.90;;
10890;SDS011;5498;50.928;11.598;2022-08-26T08:12:31;1287.63;;;999.90;;
10890;SDS011;5498;50.928;11.598;2022-08-26T08:15:35;1251.97;;;999.90;;
10890;SDS011;5498;50.928;11.598;2022-08-26T08:18:37;1281.00;;;999.90;;
10890;SDS011;5498;50.928;11.598;2022-08-26T08:21:39;1290.07;;;999.90;;
10890;SDS011;5498;50.928;11.598;2022-08-26T08:24:41;1285.63;;;999.90;;
10890;SDS011;5498;50.928;11.598;2022-08-26T08:27:43;1276.63;;;999.90;;
10890;SDS011;5498;50.928;11.598;2022-08-26T08:30:46;1295.23;;;999.90;;
10890;SDS011;5498;50.928;11.598;2022-08-26T08:33:48;1315.53;;;999.90;;
10890;SDS011;5498;50.928;11.598;2022-08-26T08:36:50;1282.83;;;999.90;;
10890;SDS011;5498;50.928;11.598;2022-08-26T08:39:52;1279.97;;;999.90;;
10890;SDS011;5498;50.928;11.598;2022-08-26T08:42:59;1308.97;;;999.90;;
10890;SDS011;5498;50.928;11.598;2022-08-26T08:46:09;1325.03;;;999.90;;
10890;SDS011;5498;50.928;11.598;2022-08-26T08:49:14;1282.33;;;999.90;;
10890;SDS011;5498;50.928;11.598;2022-08-26T08:52:18;1335.37;;;999.90;;
10890;SDS011;5498;50.928;11.598;2022-08-26T08:55:30;1316.67;;;999.90;;
10890;SDS011;5498;50.928;11.598;2022-08-26T08:58:56;1308.80;;;999.90;;
10890;SDS011;5498;50.928;11.598;2022-08-26T09:02:13;1296.47;;;999.90;;
10890;SDS011;5498;50.928;11.598;2022-08-26T09:05:21;1291.97;;;999.90;;
10890;SDS011;5498;50.928;11.598;2022-08-26T09:08:29;1323.00;;;999.90;;
10890;SDS011;5498;50.928;11.598;2022-08-26T09:11:35;1347.10;;;999.90;;
10890;SDS011;5498;50.928;11.598;2022-08-26T09:14:37;1311.70;;;999.90;;
10890;SDS011;5498;50.928;11.598;2022-08-26T09:17:43;1393.87;;;999.90;;
10890;SDS011;5498;50.928;11.598;2022-08-26T09:20:59;1408.60;;;999.90;;
10890;SDS011;5498;50.928;11.598;2022-08-26T09:24:05;1388.57;;;999.90;;
10890;SDS011;5498;50.928;11.598;2022-08-26T09:27:08;1417.07;;;999.90;;
10890;SDS011;5498;50.928;11.598;2022-08-26T09:30:11;1424.60;;;999.90;;
10890;SDS011;5498;50.928;11.598;2022-08-26T09:33:17;1403.17;;;999.90;;
10890;SDS011;5498;50.928;11.598;2022-08-26T09:36:20;1404.27;;;999.90;;
10890;SDS011;5498;50.928;11.598;2022-08-26T09:39:34;1419.87;;;999.90;;
10890;SDS011;5498;50.928;11.598;2022-08-26T09:42:38;1406.53;;;999.90;;
10890;SDS011;5498;50.928;11.598;2022-08-26T09:45:43;1399.87;;;999.90;;
10890;SDS011;5498;50.928;11.598;2022-08-26T09:48:49;1404.93;;;999.90;;
10890;SDS011;5498;50.928;11.598;2022-08-26T09:52:09;1402.83;;;999.90;;
10890;SDS011;5498;50.928;11.598;2022-08-26T09:55:19;1408.37;;;999.90;;
10890;SDS011;5498;50.928;11.598;2022-08-26T09:58:31;1391.37;;;999.90;;
10890;SDS011;5498;50.928;11.598;2022-08-26T10:01:37;1385.47;;;999.90;;
10890;SDS011;5498;50.928;11.598;2022-08-26T10:04:42;1385.90;;;999.90;;
10890;SDS011;5498;50.928;11.598;2022-08-26T10:07:51;1384.47;;;999.90;;
10890;SDS011;5498;50.928;11.598;2022-08-26T10:10:54;1389.83;;;999.90;;
10890;SDS011;5498;50.928;11.598;2022-08-26T10:13:58;1382.87;;;999.90;;
10890;SDS011;5498;50.928;11.598;2022-08-26T10:17:05;1388.97;;;999.90;;
10890;SDS011;5498;50.928;11.598;2022-08-26T10:20:15;1390.90;;;999.90;;
10890;SDS011;5498;50.928;11.598;2022-08-26T10:23:22;1273.63;;;999.90;;
10890;SDS011;5498;50.928;11.598;2022-08-26T10:26:26;1393.50;;;999.90;;
10890;SDS011;5498;50.928;11.598;2022-08-26T10:29:41;1385.73;;;999.90;;
10890;SDS011;5498;50.928;11.598;2022-08-26T10:32:49;1376.30;;;999.90;;
10890;SDS011;5498;50.928;11.598;2022-08-26T10:35:56;1385.40;;;999.90;;
10890;SDS011;5498;50.928;11.598;2022-08-26T10:39:03;1373.50;;;999.90;;
10890;SDS011;5498;50.928;11.598;2022-08-26T10:42:12;1383.33;;;999.90;;
10890;SDS011;5498;50.928;11.598;2022-08-26T10:45:20;1361.40;;;999.90;;
10890;SDS011;5498;50.928;11.598;2022-08-26T10:48:26;1375.30;;;999.90;;
10890;SDS011;5498;50.928;11.598;2022-08-26T10:51:39;1375.77;;;999.90;;
10890;SDS011;5498;50.928;11.598;2022-08-26T10:54:50;1367.20;;;999.90;;
10890;SDS011;5498;50.928;11.598;2022-08-26T10:58:00;1364.60;;;999.90;;
10890;SDS011;5498;50.928;11.598;2022-08-26T11:01:23;1360.53;;;999.90;;
10890;SDS011;5498;50.928;11.598;2022-08-26T11:04:47;1369.47;;;999.90;;
10890;SDS011;5498;50.928;11.598;2022-08-26T11:07:59;1370.27;;;999.90;;
10890;SDS011;5498;50.928;11.598;2022-08-26T11:11:47;1364.17;;;999.90;;
10890;SDS011;5498;50.928;11.598;2022-08-26T11:14:50;1372.03;;;999.90;;
10890;SDS011;5498;50.928;11.598;2022-08-26T11:17:54;1364.63;;;999.90;;
10890;SDS011;5498;50.928;11.598;2022-08-26T11:20:59;1359.07;;;999.90;;
10890;SDS011;5498;50.928;11.598;2022-08-26T11:24:03;1360.57;;;999.90;;
10890;SDS011;5498;50.928;11.598;2022-08-26T11:27:06;1340.77;;;999.90;;
10890;SDS011;5498;50.928;11.598;2022-08-26T11:33:52;1347.57;;;999.90;;
10890;SDS011;5498;50.928;11.598;2022-08-26T11:36:58;1357.60;;;999.90;;
10890;SDS011;5498;50.928;11.598;2022-08-26T11:40:05;1345.33;;;999.90;;
10890;SDS011;5498;50.928;11.598;2022-08-26T11:43:12;1346.43;;;999.90;;
10890;SDS011;5498;50.928;11.598;2022-08-26T11:46:22;1360.80;;;999.90;;
10890;SDS011;5498;50.928;11.598;2022-08-26T11:49:26;1351.30;;;999.90;;
10890;SDS011;5498;50.928;11.598;2022-08-26T11:52:30;1346.27;;;999.90;;
10890;SDS011;5498;50.928;11.598;2022-08-26T11:55:34;1364.87;;;999.90;;
10890;SDS011;5498;50.928;11.598;2022-08-26T11:58:44;1354.70;;;999.90;;
10890;SDS011;5498;50.928;11.598;2022-08-26T12:01:48;1365.53;;;999.90;;
10890;SDS011;5498;50.928;11.598;2022-08-26T12:04:52;1347.37;;;999.90;;
10890;SDS011;5498;50.928;11.598;2022-08-26T12:07:56;1370.63;;;999.90;;
10890;SDS011;5498;50.928;11.598;2022-08-26T12:11:05;1365.80;;;999.90;;
10890;SDS011;5498;50.928;11.598;2022-08-26T12:14:15;1360.60;;;999.90;;
10890;SDS011;5498;50.928;11.598;2022-08-26T12:17:25;1366.13;;;999.90;;
10890;SDS011;5498;50.928;11.598;2022-08-26T12:20:29;1360.17;;;999.90;;
10890;SDS011;5498;50.928;11.598;2022-08-26T12:23:47;1356.33;;;999.90;;
10890;SDS011;5498;50.928;11.598;2022-08-26T12:27:03;1364.27;;;999.90;;
10890;SDS011;5498;50.928;11.598;2022-08-26T12:30:15;1359.40;;;999.90;;
10890;SDS011;5498;50.928;11.598;2022-08-26T12:33:22;1367.00;;;999.90;;
10890;SDS011;5498;50.928;11.598;2022-08-26T12:36:26;1371.50;;;999.90;;
10890;SDS011;5498;50.928;11.598;2022-08-26T12:39:32;1363.20;;;999.90;;
10890;SDS011;5498;50.928;11.598;2022-08-26T12:42:40;1358.57;;;999.90;;
10890;SDS011;5498;50.928;11.598;2022-08-26T12:45:43;1361.50;;;999.90;;
10890;SDS011;5498;50.928;11.598;2022-08-26T12:48:56;1352.20;;;999.90;;
10890;SDS011;5498;50.928;11.598;2022-08-26T12:52:00;1360.20;;;999.90;;
10890;SDS011;5498;50.928;11.598;2022-08-26T12:55:04;1357.93;;;999.90;;
10890;SDS011;5498;50.928;11.598;2022-08-26T12:58:21;1370.97;;;999.90;;
10890;SDS011;5498;50.928;11.598;2022-08-26T13:01:33;1339.43;;;999.90;;
10890;SDS011;5498;50.928;11.598;2022-08-26T13:04:39;1349.03;;;999.90;;
10890;SDS011;5498;50.928;11.598;2022-08-26T13:07:44;1360.43;;;999.90;;
10890;SDS011;5498;50.928;11.598;2022-08-26T13:11:14;1363.40;;;999.90;;
10890;SDS011;5498;50.928;11.598;2022-08-26T13:14:25;1371.67;;;999.90;;
10890;SDS011;5498;50.928;11.598;2022-08-26T13:17:28;1361.93;;;999.90;;
10890;SDS011;5498;50.928;11.598;2022-08-26T13:20:32;1356.63;;;999.90;;
10890;SDS011;5498;50.928;11.598;2022-08-26T13:23:34;1353.67;;;999.90;;
10890;SDS011;5498;50.928;11.598;2022-08-26T13:26:36;1347.67;;;999.90;;
10890;SDS011;5498;50.928;11.598;2022-08-26T13:29:40;1356.33;;;999.90;;
10890;SDS011;5498;50.928;11.598;2022-08-26T13:32:42;1347.93;;;999.90;;
10890;SDS011;5498;50.928;11.598;2022-08-26T13:35:44;1346.43;;;999.90;;
10890;SDS011;5498;50.928;11.598;2022-08-26T13:38:46;1347.47;;;999.90;;
10890;SDS011;5498;50.928;11.598;2022-08-26T13:41:48;1344.37;;;999.90;;
10890;SDS011;5498;50.928;11.598;2022-08-26T13:44:51;1337.40;;;999.90;;
10890;SDS011;5498;50.928;11.598;2022-08-26T13:47:57;1340.57;;;999.90;;
10890;SDS011;5498;50.928;11.598;2022-08-26T13:50:59;1355.40;;;999.90;;
10890;SDS011;5498;50.928;11.598;2022-08-26T13:54:02;1347.10;;;999.90;;
10890;SDS011;5498;50.928;11.598;2022-08-26T13:57:05;1353.80;;;999.90;;
10890;SDS011;5498;50.928;11.598;2022-08-26T14:00:10;1343.70;;;999.90;;
10890;SDS011;5498;50.928;11.598;2022-08-26T14:03:14;1346.87;;;999.90;;
10890;SDS011;5498;50.928;11.598;2022-08-26T14:06:16;1354.10;;;999.90;;
10890;SDS011;5498;50.928;11.598;2022-08-26T14:09:19;1346.57;;;999.90;;
10890;SDS011;5498;50.928;11.598;2022-08-26T14:12:21;1347.27;;;999.90;;
10890;SDS011;5498;50.928;11.598;2022-08-26T14:15:25;1343.23;;;999.90;;
10890;SDS011;5498;50.928;11.598;2022-08-26T14:18:28;1353.57;;;999.90;;
10890;SDS011;5498;50.928;11.598;2022-08-26T14:21:33;1348.43;;;999.90;;
10890;SDS011;5498;50.928;11.598;2022-08-26T14:24:37;1356.60;;;999.90;;
10890;SDS011;5498;50.928;11.598;2022-08-26T14:27:39;1359.23;;;999.90;;
10890;SDS011;5498;50.928;11.598;2022-08-26T14:30:43;1339.63;;;999.90;;
10890;SDS011;5498;50.928;11.598;2022-08-26T14:33:52;1358.70;;;999.90;;
10890;SDS011;5498;50.928;11.598;2022-08-26T14:36:58;1344.13;;;999.90;;
10890;SDS011;5498;50.928;11.598;2022-08-26T14:40:00;1330.40;;;999.90;;
10890;SDS011;5498;50.928;11.598;2022-08-26T14:43:04;1321.73;;;999.90;;
10890;SDS011;5498;50.928;11.598;2022-08-26T14:46:09;1314.73;;;999.90;;
10890;SDS011;5498;50.928;11.598;2022-08-26T14:49:12;1318.37;;;999.90;;
10890;SDS011;5498;50.928;11.598;2022-08-26T14:52:15;1295.03;;;999.90;;
10890;SDS011;5498;50.928;11.598;2022-08-26T14:55:18;1259.87;;;999.90;;
10890;SDS011;5498;50.928;11.598;2022-08-26T14:58:19;1247.07;;;999.90;;
10890;SDS011;5498;50.928;11.598;2022-08-26T15:01:22;1229.73;;;999.90;;
10890;SDS011;5498;50.928;11.598;2022-08-26T15:04:25;1226.03;;;999.90;;
10890;SDS011;5498;50.928;11.598;2022-08-26T15:07:27;1201.43;;;999.90;;
10890;SDS011;5498;50.928;11.598;2022-08-26T15:10:29;1180.33;;;999.90;;
10890;SDS011;5498;50.928;11.598;2022-08-26T15:13:31;1160.97;;;999.90;;
10890;SDS011;5498;50.928;11.598;2022-08-26T15:16:35;1125.97;;;999.90;;
10890;SDS011;5498;50.928;11.598;2022-08-26T15:19:37;1141.93;;;999.90;;
10890;SDS011;5498;50.928;11.598;2022-08-26T15:22:39;1133.27;;;999.90;;
10890;SDS011;5498;50.928;11.598;2022-08-26T15:25:42;1135.50;;;999.90;;
10890;SDS011;5498;50.928;11.598;2022-08-26T15:28:45;1106.93;;;997.47;;
10890;SDS011;5498;50.928;11.598;2022-08-26T15:31:48;1097.10;;;987.13;;
10890;SDS011;5498;50.928;11.598;2022-08-26T15:34:51;1168.60;;;999.90;;
10890;SDS011;5498;50.928;11.598;2022-08-26T15:37:53;1135.37;;;999.90;;
10890;SDS011;5498;50.928;11.598;2022-08-26T15:40:55;1131.33;;;999.90;;
10890;SDS011;5498;50.928;11.598;2022-08-26T15:43:58;1181.27;;;999.90;;
10890;SDS011;5498;50.928;11.598;2022-08-26T15:47:02;1185.00;;;999.90;;
10890;SDS011;5498;50.928;11.598;2022-08-26T15:50:05;1191.77;;;999.90;;
10890;SDS011;5498;50.928;11.598;2022-08-26T15:53:08;1206.87;;;999.90;;
10890;SDS011;5498;50.928;11.598;2022-08-26T15:56:09;1198.33;;;999.90;;
10890;SDS011;5498;50.928;11.598;2022-08-26T15:59:12;1190.83;;;999.90;;
10890;SDS011;5498;50.928;11.598;2022-08-26T16:02:15;1165.00;;;999.90;;
10890;SDS011;5498;50.928;11.598;2022-08-26T16:05:17;1186.83;;;999.90;;
10890;SDS011;5498;50.928;11.598;2022-08-26T16:08:19;1194.93;;;999.90;;
10890;SDS011;5498;50.928;11.598;2022-08-26T16:11:22;1186.50;;;999.90;;
10890;SDS011;5498;50.928;11.598;2022-08-26T16:14:24;1174.20;;;999.90;;
10890;SDS011;5498;50.928;11.598;2022-08-26T16:17:28;1174.33;;;999.90;;
10890;SDS011;5498;50.928;11.598;2022-08-26T16:20:30;1127.63;;;999.90;;
10890;SDS011;5498;50.928;11.598;2022-08-26T16:23:34;1182.57;;;999.90;;
10890;SDS011;5498;50.928;11.598;2022-08-26T16:26:37;1167.90;;;999.90;;
10890;SDS011;5498;50.928;11.598;2022-08-26T16:29:41;1173.00;;;999.90;;
10890;SDS011;5498;50.928;11.598;2022-08-26T16:32:44;1153.53;;;999.90;;
10890;SDS011;5498;50.928;11.598;2022-08-26T16:35:47;1157.20;;;999.90;;
10890;SDS011;5498;50.928;11.598;2022-08-26T16:38:50;1135.90;;;999.90;;
10890;SDS011;5498;50.928;11.598;2022-08-26T16:41:55;1150.20;;;999.90;;
10890;SDS011;5498;50.928;11.598;2022-08-26T16:44:57;1114.50;;;999.90;;
10890;SDS011;5498;50.928;11.598;2022-08-26T16:48:00;1095.00;;;998.17;;
10890;SDS011;5498;50.928;11.598;2022-08-26T16:51:04;1111.77;;;999.90;;
10890;SDS011;5498;50.928;11.598;2022-08-26T16:54:11;1126.30;;;999.90;;
10890;SDS011;5498;50.928;11.598;2022-08-26T16:57:13;1114.40;;;999.90;;
10890;SDS011;5498;50.928;11.598;2022-08-26T17:00:18;1106.10;;;999.90;;
10890;SDS011;5498;50.928;11.598;2022-08-26T17:03:25;1120.13;;;999.90;;
10890;SDS011;5498;50.928;11.598;2022-08-26T17:06:27;1103.27;;;999.90;;
10890;SDS011;5498;50.928;11.598;2022-08-26T17:09:29;1114.80;;;999.90;;
10890;SDS011;5498;50.928;11.598;2022-08-26T17:12:31;1135.33;;;999.90;;
10890;SDS011;5498;50.928;11.598;2022-08-26T17:15:33;1141.83;;;999.90;;
10890;SDS011;5498;50.928;11.598;2022-08-26T17:18:36;1118.50;;;999.90;;